< < Back
Terminal Aerodrome Forecast


Current Version              Previous Versions:   1  2  3  4  5  6  7  8  9  

Terminal Aerodrome Forecast

360
FTUS42 KTAE 210500
TAFTLH
TAF
KTLH 210523Z 2106/2206 00000KT P6SM SKC
     FM211500 03006KT P6SM FEW250
     FM220000 00000KT P6SM SCT250=

Latest METAR

417
SAUS80 KWBC 210700 RRA
MTRTLH
METAR KTLH 210653Z AUTO 00000KT 10SM CLR 10/08 A3011 RMK AO2 SLP196
T01000078 $


USA.gov is the U.S. government's official web portal to all federal, state and local government web resources and services.